John R Operle — WDB8611 — position and weather

sailwx.info

Track history (hours):
 
Tides and Currents Weather Stations Pressure Air Temp Water Temp Dewpoint Dewpoint Depression Visibility Wind Speed Wind Dir Waves Ship Positions

John R Operle

Owner: INGRAM BARGE COMPANY, Nashville, TN. More information available from US FCC via Universal Licensing System and Coast Guard Vessel Documentation Center.

Last reported at 2017-Mar-26 02:33 UTC. Time now 2017-Mar-26 03:19 UTC.
Position N 38°56' W 090°30'.

Length 48 m; draft 3 m.

Type: Towing. MMSI: 366961510.

Date/timePositionNaut miles runAvg speedWind from/ knotsBaromVisibWave heightAir tempDewpointWater temp
2017-Mar-26 02:33N 38°56' W 090°30'5 5.0
2017-Mar-26 01:33N 38°58' W 090°24'6 5.9
2017-Mar-26 00:33N 38°55' W 090°17'7 5.9
2017-Mar-25 23:24N 38°52' W 090°09'3 0.1
2017-Mar-24 20:31N 38°54' W 090°13'0 0.4
2017-Mar-24 19:28N 38°55' W 090°13'3 3.3
2017-Mar-24 18:28N 38°55' W 090°17'5 5.6
2017-Mar-24 17:33N 38°58' W 090°23'6 6.1
2017-Mar-24 16:33N 38°55' W 090°30'  
Track history (hours):
 
Tides and Currents Weather Stations Pressure Air Temp Water Temp Dewpoint Dewpoint Depression Visibility Wind Speed Wind Dir Waves Ship Positions

John R Operle

Owner: INGRAM BARGE COMPANY, Nashville, TN. More information available from US FCC via Universal Licensing System and Coast Guard Vessel Documentation Center.

Last reported at 2017-Mar-26 02:33 UTC. Time now 2017-Mar-26 03:20 UTC.
Position N 38°56' W 090°30'.

Length 48 m; draft 3 m.

Type: Towing. MMSI: 366961510.

Date/timePositionNaut miles runAvg speedWind from/ knotsBaromVisibWave heightAir tempDewpointWater temp
2017-Mar-26 02:33N 38°56' W 090°30'5 5.0
2017-Mar-26 01:33N 38°58' W 090°24'6 5.9
2017-Mar-26 00:33N 38°55' W 090°17'7 5.9
2017-Mar-25 23:24N 38°52' W 090°09'3 0.1
2017-Mar-24 20:31N 38°54' W 090°13'0 0.4
2017-Mar-24 19:28N 38°55' W 090°13'3 3.3
2017-Mar-24 18:28N 38°55' W 090°17'5 5.6
2017-Mar-24 17:33N 38°58' W 090°23'6 6.1
2017-Mar-24 16:33N 38°55' W 090°30'  

Dump ship's entire track history